sensor_id;sensor_type;location;lat;lon;timestamp;P1;durP1;ratioP1;P2;durP2;ratioP2
2698;SDS011;1359;51.798;12.174;2023-02-28T00:01:30;17.00;;;10.40;;
2698;SDS011;1359;51.798;12.174;2023-02-28T00:03:55;15.33;;;11.43;;
2698;SDS011;1359;51.798;12.174;2023-02-28T00:06:21;17.63;;;8.47;;
2698;SDS011;1359;51.798;12.174;2023-02-28T00:08:46;13.63;;;8.13;;
2698;SDS011;1359;51.798;12.174;2023-02-28T00:11:13;12.30;;;9.27;;
2698;SDS011;1359;51.798;12.174;2023-02-28T00:13:40;11.80;;;9.10;;
2698;SDS011;1359;51.798;12.174;2023-02-28T00:16:07;11.00;;;7.57;;
2698;SDS011;1359;51.798;12.174;2023-02-28T00:18:33;11.70;;;8.00;;
2698;SDS011;1359;51.798;12.174;2023-02-28T00:20:58;7.93;;;7.13;;
2698;SDS011;1359;51.798;12.174;2023-02-28T00:23:24;10.70;;;7.30;;
2698;SDS011;1359;51.798;12.174;2023-02-28T00:25:49;13.03;;;9.13;;
2698;SDS011;1359;51.798;12.174;2023-02-28T00:28:15;9.97;;;8.60;;
2698;SDS011;1359;51.798;12.174;2023-02-28T00:30:40;9.90;;;7.00;;
2698;SDS011;1359;51.798;12.174;2023-02-28T00:33:06;9.87;;;7.53;;
2698;SDS011;1359;51.798;12.174;2023-02-28T00:35:31;10.13;;;7.60;;
2698;SDS011;1359;51.798;12.174;2023-02-28T00:37:56;9.53;;;6.20;;
2698;SDS011;1359;51.798;12.174;2023-02-28T00:40:22;7.93;;;7.10;;
2698;SDS011;1359;51.798;12.174;2023-02-28T00:42:47;6.60;;;6.00;;
2698;SDS011;1359;51.798;12.174;2023-02-28T00:45:12;6.57;;;5.83;;
2698;SDS011;1359;51.798;12.174;2023-02-28T00:47:38;6.47;;;5.93;;
2698;SDS011;1359;51.798;12.174;2023-02-28T00:50:03;9.43;;;5.00;;
2698;SDS011;1359;51.798;12.174;2023-02-28T00:52:29;8.40;;;6.33;;
2698;SDS011;1359;51.798;12.174;2023-02-28T00:54:54;11.10;;;5.87;;
2698;SDS011;1359;51.798;12.174;2023-02-28T00:57:19;8.40;;;5.50;;
2698;SDS011;1359;51.798;12.174;2023-02-28T00:59:45;7.37;;;5.60;;
2698;SDS011;1359;51.798;12.174;2023-02-28T01:02:10;6.97;;;5.80;;
2698;SDS011;1359;51.798;12.174;2023-02-28T01:04:35;7.07;;;5.97;;
2698;SDS011;1359;51.798;12.174;2023-02-28T01:07:01;13.33;;;5.90;;
2698;SDS011;1359;51.798;12.174;2023-02-28T01:09:27;7.40;;;5.37;;
2698;SDS011;1359;51.798;12.174;2023-02-28T01:11:52;7.67;;;5.50;;
2698;SDS011;1359;51.798;12.174;2023-02-28T01:14:18;6.07;;;5.47;;
2698;SDS011;1359;51.798;12.174;2023-02-28T01:16:44;9.17;;;6.40;;
2698;SDS011;1359;51.798;12.174;2023-02-28T01:19:10;7.23;;;5.90;;
2698;SDS011;1359;51.798;12.174;2023-02-28T01:21:37;6.57;;;6.00;;
2698;SDS011;1359;51.798;12.174;2023-02-28T01:24:03;6.07;;;5.50;;
2698;SDS011;1359;51.798;12.174;2023-02-28T01:26:29;8.43;;;7.07;;
2698;SDS011;1359;51.798;12.174;2023-02-28T01:28:55;8.90;;;6.17;;
2698;SDS011;1359;51.798;12.174;2023-02-28T01:31:20;8.10;;;5.53;;
2698;SDS011;1359;51.798;12.174;2023-02-28T01:33:47;7.50;;;5.40;;
2698;SDS011;1359;51.798;12.174;2023-02-28T01:36:14;7.50;;;6.03;;
2698;SDS011;1359;51.798;12.174;2023-02-28T01:38:40;6.20;;;5.47;;
2698;SDS011;1359;51.798;12.174;2023-02-28T01:41:05;8.00;;;5.47;;
2698;SDS011;1359;51.798;12.174;2023-02-28T01:43:39;6.50;;;5.97;;
2698;SDS011;1359;51.798;12.174;2023-02-28T01:46:17;6.90;;;5.57;;
2698;SDS011;1359;51.798;12.174;2023-02-28T01:48:52;6.07;;;5.47;;
2698;SDS011;1359;51.798;12.174;2023-02-28T01:51:19;5.33;;;4.93;;
2698;SDS011;1359;51.798;12.174;2023-02-28T01:53:48;6.10;;;5.50;;
2698;SDS011;1359;51.798;12.174;2023-02-28T01:56:15;5.57;;;4.90;;
2698;SDS011;1359;51.798;12.174;2023-02-28T01:58:47;6.00;;;5.40;;
2698;SDS011;1359;51.798;12.174;2023-02-28T02:01:13;6.20;;;5.60;;
2698;SDS011;1359;51.798;12.174;2023-02-28T02:03:49;4.60;;;4.30;;
2698;SDS011;1359;51.798;12.174;2023-02-28T02:06:23;7.17;;;4.33;;
2698;SDS011;1359;51.798;12.174;2023-02-28T02:08:49;6.73;;;5.40;;
2698;SDS011;1359;51.798;12.174;2023-02-28T02:11:16;5.40;;;4.37;;
2698;SDS011;1359;51.798;12.174;2023-02-28T02:29:38;5.80;;;4.40;;
2698;SDS011;1359;51.798;12.174;2023-02-28T02:35:14;8.27;;;5.07;;
2698;SDS011;1359;51.798;12.174;2023-02-28T02:37:48;5.20;;;4.70;;
2698;SDS011;1359;51.798;12.174;2023-02-28T02:40:19;5.83;;;5.33;;
2698;SDS011;1359;51.798;12.174;2023-02-28T02:43:19;6.70;;;5.47;;
2698;SDS011;1359;51.798;12.174;2023-02-28T02:45:41;8.43;;;5.30;;
2698;SDS011;1359;51.798;12.174;2023-02-28T02:48:08;4.70;;;4.30;;
2698;SDS011;1359;51.798;12.174;2023-02-28T02:50:43;4.33;;;3.27;;
2698;SDS011;1359;51.798;12.174;2023-02-28T02:53:11;4.50;;;4.10;;
2698;SDS011;1359;51.798;12.174;2023-02-28T02:55:40;4.17;;;3.77;;
2698;SDS011;1359;51.798;12.174;2023-02-28T02:58:14;6.27;;;4.50;;
2698;SDS011;1359;51.798;12.174;2023-02-28T03:00:42;4.77;;;4.23;;
2698;SDS011;1359;51.798;12.174;2023-02-28T03:03:09;4.77;;;3.90;;
2698;SDS011;1359;51.798;12.174;2023-02-28T03:05:39;4.10;;;3.80;;
2698;SDS011;1359;51.798;12.174;2023-02-28T03:08:06;8.17;;;3.97;;
2698;SDS011;1359;51.798;12.174;2023-02-28T03:10:39;4.57;;;3.70;;
2698;SDS011;1359;51.798;12.174;2023-02-28T03:13:27;4.43;;;4.13;;
2698;SDS011;1359;51.798;12.174;2023-02-28T03:24:26;5.00;;;4.50;;
2698;SDS011;1359;51.798;12.174;2023-02-28T03:26:31;4.70;;;3.50;;
2698;SDS011;1359;51.798;12.174;2023-02-28T03:29:02;5.27;;;3.90;;
2698;SDS011;1359;51.798;12.174;2023-02-28T03:31:33;4.40;;;4.00;;
2698;SDS011;1359;51.798;12.174;2023-02-28T03:34:07;4.17;;;3.77;;
2698;SDS011;1359;51.798;12.174;2023-02-28T03:36:35;8.47;;;4.30;;
2698;SDS011;1359;51.798;12.174;2023-02-28T03:39:07;3.90;;;3.60;;
2698;SDS011;1359;51.798;12.174;2023-02-28T03:41:43;4.70;;;3.73;;
2698;SDS011;1359;51.798;12.174;2023-02-28T03:44:23;3.87;;;3.53;;
2698;SDS011;1359;51.798;12.174;2023-02-28T03:47:08;4.33;;;3.83;;
2698;SDS011;1359;51.798;12.174;2023-02-28T03:49:36;5.10;;;4.00;;
2698;SDS011;1359;51.798;12.174;2023-02-28T03:52:05;4.57;;;4.17;;
2698;SDS011;1359;51.798;12.174;2023-02-28T03:54:31;5.20;;;4.70;;
2698;SDS011;1359;51.798;12.174;2023-02-28T03:59:43;5.10;;;4.60;;
2698;SDS011;1359;51.798;12.174;2023-02-28T04:02:10;4.13;;;3.73;;
2698;SDS011;1359;51.798;12.174;2023-02-28T04:04:35;5.37;;;3.80;;
2698;SDS011;1359;51.798;12.174;2023-02-28T04:07:02;4.57;;;3.40;;
2698;SDS011;1359;51.798;12.174;2023-02-28T04:09:28;4.60;;;3.80;;
2698;SDS011;1359;51.798;12.174;2023-02-28T04:11:53;4.10;;;3.60;;
2698;SDS011;1359;51.798;12.174;2023-02-28T04:14:20;5.57;;;4.00;;
2698;SDS011;1359;51.798;12.174;2023-02-28T04:16:46;3.63;;;3.33;;
2698;SDS011;1359;51.798;12.174;2023-02-28T04:19:12;4.40;;;4.00;;
2698;SDS011;1359;51.798;12.174;2023-02-28T04:21:39;7.23;;;3.83;;
2698;SDS011;1359;51.798;12.174;2023-02-28T04:24:05;4.13;;;3.80;;
2698;SDS011;1359;51.798;12.174;2023-02-28T04:26:34;5.20;;;4.70;;
2698;SDS011;1359;51.798;12.174;2023-02-28T04:29:00;4.57;;;4.17;;
2698;SDS011;1359;51.798;12.174;2023-02-28T04:31:25;4.13;;;3.73;;
2698;SDS011;1359;51.798;12.174;2023-02-28T04:33:51;4.10;;;3.63;;
2698;SDS011;1359;51.798;12.174;2023-02-28T04:36:16;4.17;;;3.77;;
2698;SDS011;1359;51.798;12.174;2023-02-28T04:38:43;4.10;;;3.80;;
2698;SDS011;1359;51.798;12.174;2023-02-28T04:41:09;4.07;;;3.67;;
2698;SDS011;1359;51.798;12.174;2023-02-28T04:43:34;5.83;;;4.07;;
2698;SDS011;1359;51.798;12.174;2023-02-28T04:46:01;4.60;;;3.63;;
2698;SDS011;1359;51.798;12.174;2023-02-28T04:48:30;4.17;;;3.27;;
2698;SDS011;1359;51.798;12.174;2023-02-28T04:51:00;5.23;;;3.93;;
2698;SDS011;1359;51.798;12.174;2023-02-28T04:53:25;4.63;;;4.23;;
2698;SDS011;1359;51.798;12.174;2023-02-28T04:55:50;4.70;;;4.30;;
2698;SDS011;1359;51.798;12.174;2023-02-28T04:58:16;3.43;;;3.13;;
2698;SDS011;1359;51.798;12.174;2023-02-28T05:00:41;5.63;;;5.13;;
2698;SDS011;1359;51.798;12.174;2023-02-28T05:03:07;4.77;;;4.30;;
2698;SDS011;1359;51.798;12.174;2023-02-28T05:05:32;5.10;;;3.87;;
2698;SDS011;1359;51.798;12.174;2023-02-28T05:07:57;5.37;;;4.13;;
2698;SDS011;1359;51.798;12.174;2023-02-28T05:10:23;4.10;;;3.67;;
2698;SDS011;1359;51.798;12.174;2023-02-28T05:12:48;5.53;;;4.80;;
2698;SDS011;1359;51.798;12.174;2023-02-28T05:15:14;4.63;;;4.13;;
2698;SDS011;1359;51.798;12.174;2023-02-28T05:17:39;4.17;;;3.80;;
2698;SDS011;1359;51.798;12.174;2023-02-28T05:20:05;4.20;;;3.70;;
2698;SDS011;1359;51.798;12.174;2023-02-28T05:22:31;4.00;;;3.60;;
2698;SDS011;1359;51.798;12.174;2023-02-28T05:24:56;6.63;;;4.10;;
2698;SDS011;1359;51.798;12.174;2023-02-28T05:27:21;4.40;;;4.00;;
2698;SDS011;1359;51.798;12.174;2023-02-28T05:29:47;4.30;;;3.77;;
2698;SDS011;1359;51.798;12.174;2023-02-28T05:32:12;3.83;;;3.43;;
2698;SDS011;1359;51.798;12.174;2023-02-28T05:34:38;4.30;;;3.83;;
2698;SDS011;1359;51.798;12.174;2023-02-28T05:37:03;4.20;;;3.90;;
2698;SDS011;1359;51.798;12.174;2023-02-28T05:39:29;5.20;;;4.00;;
2698;SDS011;1359;51.798;12.174;2023-02-28T05:41:54;4.80;;;4.27;;
2698;SDS011;1359;51.798;12.174;2023-02-28T05:44:20;4.03;;;3.73;;
2698;SDS011;1359;51.798;12.174;2023-02-28T05:46:45;7.00;;;4.10;;
2698;SDS011;1359;51.798;12.174;2023-02-28T05:49:10;4.63;;;4.33;;
2698;SDS011;1359;51.798;12.174;2023-02-28T05:51:36;5.00;;;4.00;;
2698;SDS011;1359;51.798;12.174;2023-02-28T05:54:05;7.87;;;3.83;;
2698;SDS011;1359;51.798;12.174;2023-02-28T05:56:30;4.87;;;4.37;;
2698;SDS011;1359;51.798;12.174;2023-02-28T05:58:56;4.93;;;3.90;;
2698;SDS011;1359;51.798;12.174;2023-02-28T06:03:59;6.53;;;4.20;;
2698;SDS011;1359;51.798;12.174;2023-02-28T06:06:25;5.10;;;4.60;;
2698;SDS011;1359;51.798;12.174;2023-02-28T06:08:50;7.10;;;5.53;;
2698;SDS011;1359;51.798;12.174;2023-02-28T06:11:15;6.33;;;4.97;;
2698;SDS011;1359;51.798;12.174;2023-02-28T06:13:41;6.77;;;6.07;;
2698;SDS011;1359;51.798;12.174;2023-02-28T06:16:07;9.03;;;6.50;;
2698;SDS011;1359;51.798;12.174;2023-02-28T06:18:33;8.53;;;6.97;;
2698;SDS011;1359;51.798;12.174;2023-02-28T06:20:58;8.40;;;7.03;;
2698;SDS011;1359;51.798;12.174;2023-02-28T06:23:24;8.50;;;6.70;;
2698;SDS011;1359;51.798;12.174;2023-02-28T06:25:49;6.73;;;6.00;;
2698;SDS011;1359;51.798;12.174;2023-02-28T06:28:14;5.80;;;5.10;;
2698;SDS011;1359;51.798;12.174;2023-02-28T06:30:40;6.63;;;5.20;;
2698;SDS011;1359;51.798;12.174;2023-02-28T06:33:05;8.93;;;6.87;;
2698;SDS011;1359;51.798;12.174;2023-02-28T06:35:30;12.60;;;7.03;;
2698;SDS011;1359;51.798;12.174;2023-02-28T06:37:56;7.73;;;7.03;;
2698;SDS011;1359;51.798;12.174;2023-02-28T06:40:21;10.60;;;7.10;;
2698;SDS011;1359;51.798;12.174;2023-02-28T06:42:47;10.17;;;6.43;;
2698;SDS011;1359;51.798;12.174;2023-02-28T06:45:12;8.57;;;6.30;;
2698;SDS011;1359;51.798;12.174;2023-02-28T06:47:38;10.47;;;8.03;;
2698;SDS011;1359;51.798;12.174;2023-02-28T06:50:04;8.87;;;6.17;;
2698;SDS011;1359;51.798;12.174;2023-02-28T06:52:30;12.17;;;8.03;;
2698;SDS011;1359;51.798;12.174;2023-02-28T06:54:55;9.80;;;6.83;;
2698;SDS011;1359;51.798;12.174;2023-02-28T06:57:28;10.40;;;7.10;;
2698;SDS011;1359;51.798;12.174;2023-02-28T06:59:56;9.73;;;7.23;;
2698;SDS011;1359;51.798;12.174;2023-02-28T07:02:21;8.17;;;6.03;;
2698;SDS011;1359;51.798;12.174;2023-02-28T07:04:47;15.60;;;8.07;;
2698;SDS011;1359;51.798;12.174;2023-02-28T07:07:12;8.70;;;6.87;;
2698;SDS011;1359;51.798;12.174;2023-02-28T07:09:37;11.53;;;7.10;;
2698;SDS011;1359;51.798;12.174;2023-02-28T07:12:03;12.40;;;8.30;;
2698;SDS011;1359;51.798;12.174;2023-02-28T07:14:28;15.90;;;7.83;;
2698;SDS011;1359;51.798;12.174;2023-02-28T07:16:53;10.50;;;7.50;;
2698;SDS011;1359;51.798;12.174;2023-02-28T07:19:19;10.23;;;7.53;;
2698;SDS011;1359;51.798;12.174;2023-02-28T07:21:44;9.43;;;7.20;;
2698;SDS011;1359;51.798;12.174;2023-02-28T07:24:10;7.23;;;5.50;;
2698;SDS011;1359;51.798;12.174;2023-02-28T07:26:35;9.33;;;5.10;;
2698;SDS011;1359;51.798;12.174;2023-02-28T07:29:00;5.73;;;5.20;;
2698;SDS011;1359;51.798;12.174;2023-02-28T07:31:27;6.17;;;4.87;;
2698;SDS011;1359;51.798;12.174;2023-02-28T07:33:52;5.87;;;4.23;;
2698;SDS011;1359;51.798;12.174;2023-02-28T07:36:19;4.30;;;3.90;;
2698;SDS011;1359;51.798;12.174;2023-02-28T07:38:45;6.10;;;4.50;;
2698;SDS011;1359;51.798;12.174;2023-02-28T07:41:13;5.47;;;4.27;;
2698;SDS011;1359;51.798;12.174;2023-02-28T07:43:39;6.90;;;5.20;;
2698;SDS011;1359;51.798;12.174;2023-02-28T07:46:05;6.73;;;4.83;;
2698;SDS011;1359;51.798;12.174;2023-02-28T07:48:31;6.67;;;5.00;;
2698;SDS011;1359;51.798;12.174;2023-02-28T07:50:57;6.73;;;6.20;;
2698;SDS011;1359;51.798;12.174;2023-02-28T07:53:23;7.03;;;4.93;;
2698;SDS011;1359;51.798;12.174;2023-02-28T07:55:48;6.80;;;5.40;;
2698;SDS011;1359;51.798;12.174;2023-02-28T07:58:14;5.93;;;4.87;;
2698;SDS011;1359;51.798;12.174;2023-02-28T08:00:39;7.00;;;5.30;;
2698;SDS011;1359;51.798;12.174;2023-02-28T08:03:04;5.20;;;4.70;;
2698;SDS011;1359;51.798;12.174;2023-02-28T08:05:29;7.10;;;5.87;;
2698;SDS011;1359;51.798;12.174;2023-02-28T08:07:56;5.67;;;5.10;;
2698;SDS011;1359;51.798;12.174;2023-02-28T08:10:21;6.47;;;5.80;;
2698;SDS011;1359;51.798;12.174;2023-02-28T08:12:46;6.30;;;5.00;;
2698;SDS011;1359;51.798;12.174;2023-02-28T08:15:12;5.80;;;4.60;;
2698;SDS011;1359;51.798;12.174;2023-02-28T08:17:37;6.00;;;5.20;;
2698;SDS011;1359;51.798;12.174;2023-02-28T08:20:02;8.63;;;4.93;;
2698;SDS011;1359;51.798;12.174;2023-02-28T08:22:29;5.33;;;4.30;;
2698;SDS011;1359;51.798;12.174;2023-02-28T08:24:54;7.00;;;4.80;;
2698;SDS011;1359;51.798;12.174;2023-02-28T08:27:19;7.90;;;5.47;;
2698;SDS011;1359;51.798;12.174;2023-02-28T08:29:45;7.87;;;4.90;;
2698;SDS011;1359;51.798;12.174;2023-02-28T08:32:10;8.53;;;5.43;;
2698;SDS011;1359;51.798;12.174;2023-02-28T08:34:36;7.17;;;5.43;;
2698;SDS011;1359;51.798;12.174;2023-02-28T08:37:03;6.27;;;5.10;;
2698;SDS011;1359;51.798;12.174;2023-02-28T08:39:28;6.77;;;5.30;;
2698;SDS011;1359;51.798;12.174;2023-02-28T08:41:54;6.10;;;4.80;;
2698;SDS011;1359;51.798;12.174;2023-02-28T08:44:19;7.50;;;6.60;;
2698;SDS011;1359;51.798;12.174;2023-02-28T08:46:44;6.70;;;4.73;;
2698;SDS011;1359;51.798;12.174;2023-02-28T08:49:10;6.47;;;4.63;;
2698;SDS011;1359;51.798;12.174;2023-02-28T08:51:35;4.90;;;4.50;;
2698;SDS011;1359;51.798;12.174;2023-02-28T08:54:01;5.37;;;4.90;;
2698;SDS011;1359;51.798;12.174;2023-02-28T08:56:27;4.70;;;4.40;;
2698;SDS011;1359;51.798;12.174;2023-02-28T08:58:53;9.80;;;5.07;;
2698;SDS011;1359;51.798;12.174;2023-02-28T09:01:27;5.77;;;5.03;;
2698;SDS011;1359;51.798;12.174;2023-02-28T09:03:52;13.43;;;7.17;;
2698;SDS011;1359;51.798;12.174;2023-02-28T09:06:19;10.00;;;5.33;;
2698;SDS011;1359;51.798;12.174;2023-02-28T09:08:45;10.70;;;5.53;;
2698;SDS011;1359;51.798;12.174;2023-02-28T09:11:10;6.00;;;5.43;;
2698;SDS011;1359;51.798;12.174;2023-02-28T09:13:36;9.80;;;6.00;;
2698;SDS011;1359;51.798;12.174;2023-02-28T09:16:02;6.80;;;5.20;;
2698;SDS011;1359;51.798;12.174;2023-02-28T09:18:28;6.23;;;5.60;;
2698;SDS011;1359;51.798;12.174;2023-02-28T09:20:53;5.70;;;5.20;;
2698;SDS011;1359;51.798;12.174;2023-02-28T09:23:18;7.23;;;6.00;;
2698;SDS011;1359;51.798;12.174;2023-02-28T09:25:48;8.27;;;4.70;;
2698;SDS011;1359;51.798;12.174;2023-02-28T09:28:13;7.47;;;4.87;;
2698;SDS011;1359;51.798;12.174;2023-02-28T09:30:41;7.50;;;4.47;;
2698;SDS011;1359;51.798;12.174;2023-02-28T09:33:06;5.63;;;5.13;;
2698;SDS011;1359;51.798;12.174;2023-02-28T09:35:32;9.23;;;6.00;;
2698;SDS011;1359;51.798;12.174;2023-02-28T09:37:57;6.03;;;5.00;;
2698;SDS011;1359;51.798;12.174;2023-02-28T09:40:24;8.00;;;5.87;;
2698;SDS011;1359;51.798;12.174;2023-02-28T09:42:50;10.03;;;6.73;;
2698;SDS011;1359;51.798;12.174;2023-02-28T09:45:21;7.20;;;6.33;;
2698;SDS011;1359;51.798;12.174;2023-02-28T09:47:47;5.63;;;5.13;;
2698;SDS011;1359;51.798;12.174;2023-02-28T09:52:38;7.40;;;6.30;;
2698;SDS011;1359;51.798;12.174;2023-02-28T09:55:39;6.10;;;5.13;;
2698;SDS011;1359;51.798;12.174;2023-02-28T09:57:56;10.10;;;5.70;;
2698;SDS011;1359;51.798;12.174;2023-02-28T10:00:30;6.50;;;5.90;;
2698;SDS011;1359;51.798;12.174;2023-02-28T10:05:26;9.73;;;5.63;;
2698;SDS011;1359;51.798;12.174;2023-02-28T10:07:59;8.10;;;6.07;;
2698;SDS011;1359;51.798;12.174;2023-02-28T10:10:32;8.07;;;5.40;;
2698;SDS011;1359;51.798;12.174;2023-02-28T10:13:00;7.13;;;5.70;;
2698;SDS011;1359;51.798;12.174;2023-02-28T10:15:29;7.90;;;4.53;;
2698;SDS011;1359;51.798;12.174;2023-02-28T10:17:56;9.80;;;4.60;;
2698;SDS011;1359;51.798;12.174;2023-02-28T10:20:23;4.80;;;4.23;;
2698;SDS011;1359;51.798;12.174;2023-02-28T10:22:58;5.47;;;4.73;;
2698;SDS011;1359;51.798;12.174;2023-02-28T10:25:26;5.77;;;5.27;;
2698;SDS011;1359;51.798;12.174;2023-02-28T10:27:53;6.50;;;4.33;;
2698;SDS011;1359;51.798;12.174;2023-02-28T10:30:19;6.67;;;4.97;;
2698;SDS011;1359;51.798;12.174;2023-02-28T10:32:47;4.90;;;4.40;;
2698;SDS011;1359;51.798;12.174;2023-02-28T10:35:18;11.17;;;5.03;;
2698;SDS011;1359;51.798;12.174;2023-02-28T10:37:45;5.70;;;4.70;;
2698;SDS011;1359;51.798;12.174;2023-02-28T10:42:38;7.00;;;5.07;;
2698;SDS011;1359;51.798;12.174;2023-02-28T10:45:05;5.43;;;4.87;;
2698;SDS011;1359;51.798;12.174;2023-02-28T10:47:31;5.70;;;4.57;;
2698;SDS011;1359;51.798;12.174;2023-02-28T10:49:59;4.40;;;4.00;;
2698;SDS011;1359;51.798;12.174;2023-02-28T10:52:35;7.70;;;4.67;;
2698;SDS011;1359;51.798;12.174;2023-02-28T10:55:21;9.33;;;5.43;;
2698;SDS011;1359;51.798;12.174;2023-02-28T10:57:47;8.63;;;6.30;;
2698;SDS011;1359;51.798;12.174;2023-02-28T11:00:14;6.20;;;4.97;;
2698;SDS011;1359;51.798;12.174;2023-02-28T11:02:40;5.13;;;3.83;;
2698;SDS011;1359;51.798;12.174;2023-02-28T11:05:23;5.63;;;5.00;;
2698;SDS011;1359;51.798;12.174;2023-02-28T11:07:52;7.00;;;5.77;;
2698;SDS011;1359;51.798;12.174;2023-02-28T11:10:19;5.77;;;4.87;;
2698;SDS011;1359;51.798;12.174;2023-02-28T11:12:45;7.20;;;5.10;;
2698;SDS011;1359;51.798;12.174;2023-02-28T11:15:18;8.63;;;6.53;;
2698;SDS011;1359;51.798;12.174;2023-02-28T11:17:52;8.30;;;6.17;;
2698;SDS011;1359;51.798;12.174;2023-02-28T11:20:21;7.37;;;5.70;;
2698;SDS011;1359;51.798;12.174;2023-02-28T11:22:48;7.47;;;5.53;;
2698;SDS011;1359;51.798;12.174;2023-02-28T11:25:22;7.03;;;5.67;;
2698;SDS011;1359;51.798;12.174;2023-02-28T11:27:53;8.33;;;6.10;;
2698;SDS011;1359;51.798;12.174;2023-02-28T11:30:32;7.40;;;6.13;;
2698;SDS011;1359;51.798;12.174;2023-02-28T11:32:59;23.30;;;12.27;;
2698;SDS011;1359;51.798;12.174;2023-02-28T11:35:31;10.23;;;7.17;;
2698;SDS011;1359;51.798;12.174;2023-02-28T11:37:59;6.83;;;5.57;;
2698;SDS011;1359;51.798;12.174;2023-02-28T11:40:34;11.77;;;6.37;;
2698;SDS011;1359;51.798;12.174;2023-02-28T11:43:10;7.13;;;5.83;;
2698;SDS011;1359;51.798;12.174;2023-02-28T11:45:42;6.20;;;5.60;;
2698;SDS011;1359;51.798;12.174;2023-02-28T11:48:29;10.33;;;6.70;;
2698;SDS011;1359;51.798;12.174;2023-02-28T11:59:05;5.80;;;5.30;;
2698;SDS011;1359;51.798;12.174;2023-02-28T12:04:11;11.70;;;6.37;;
2698;SDS011;1359;51.798;12.174;2023-02-28T12:06:45;9.93;;;6.70;;
2698;SDS011;1359;51.798;12.174;2023-02-28T12:11:45;8.00;;;6.50;;
2698;SDS011;1359;51.798;12.174;2023-02-28T12:16:46;7.17;;;6.47;;
2698;SDS011;1359;51.798;12.174;2023-02-28T12:19:22;7.43;;;6.73;;
2698;SDS011;1359;51.798;12.174;2023-02-28T12:22:12;11.23;;;6.07;;
2698;SDS011;1359;51.798;12.174;2023-02-28T12:27:11;6.93;;;6.23;;
2698;SDS011;1359;51.798;12.174;2023-02-28T12:29:49;7.87;;;6.63;;
2698;SDS011;1359;51.798;12.174;2023-02-28T12:32:34;10.00;;;6.60;;
2698;SDS011;1359;51.798;12.174;2023-02-28T12:37:31;5.73;;;5.23;;
2698;SDS011;1359;51.798;12.174;2023-02-28T12:40:03;7.03;;;6.33;;
2698;SDS011;1359;51.798;12.174;2023-02-28T12:42:34;7.90;;;6.33;;
2698;SDS011;1359;51.798;12.174;2023-02-28T12:45:02;7.50;;;6.80;;
2698;SDS011;1359;51.798;12.174;2023-02-28T12:47:30;7.60;;;6.37;;
2698;SDS011;1359;51.798;12.174;2023-02-28T12:49:59;8.73;;;6.40;;
2698;SDS011;1359;51.798;12.174;2023-02-28T12:57:46;8.90;;;6.87;;
2698;SDS011;1359;51.798;12.174;2023-02-28T13:00:15;10.00;;;7.93;;
2698;SDS011;1359;51.798;12.174;2023-02-28T13:03:00;8.03;;;6.60;;
2698;SDS011;1359;51.798;12.174;2023-02-28T13:10:44;10.83;;;7.73;;
2698;SDS011;1359;51.798;12.174;2023-02-28T13:13:13;7.60;;;6.20;;
2698;SDS011;1359;51.798;12.174;2023-02-28T13:15:39;8.50;;;7.20;;
2698;SDS011;1359;51.798;12.174;2023-02-28T13:18:25;6.60;;;6.00;;
2698;SDS011;1359;51.798;12.174;2023-02-28T13:20:52;9.60;;;6.83;;
2698;SDS011;1359;51.798;12.174;2023-02-28T13:26:01;9.83;;;6.60;;
2698;SDS011;1359;51.798;12.174;2023-02-28T13:28:56;8.47;;;6.47;;
2698;SDS011;1359;51.798;12.174;2023-02-28T13:31:22;8.07;;;6.20;;
2698;SDS011;1359;51.798;12.174;2023-02-28T13:38:45;7.40;;;6.70;;
2698;SDS011;1359;51.798;12.174;2023-02-28T13:49:25;7.40;;;6.77;;
2698;SDS011;1359;51.798;12.174;2023-02-28T13:54:34;10.73;;;8.53;;
2698;SDS011;1359;51.798;12.174;2023-02-28T13:57:11;6.40;;;5.70;;
2698;SDS011;1359;51.798;12.174;2023-02-28T14:02:29;10.30;;;7.20;;
2698;SDS011;1359;51.798;12.174;2023-02-28T14:04:59;13.93;;;8.40;;
2698;SDS011;1359;51.798;12.174;2023-02-28T14:07:26;10.67;;;8.97;;
2698;SDS011;1359;51.798;12.174;2023-02-28T14:09:57;12.70;;;8.37;;
2698;SDS011;1359;51.798;12.174;2023-02-28T14:17:54;7.87;;;7.07;;
2698;SDS011;1359;51.798;12.174;2023-02-28T14:20:21;7.50;;;6.73;;
2698;SDS011;1359;51.798;12.174;2023-02-28T14:22:51;10.70;;;7.80;;
2698;SDS011;1359;51.798;12.174;2023-02-28T14:25:24;10.40;;;7.17;;
2698;SDS011;1359;51.798;12.174;2023-02-28T14:28:11;9.70;;;6.03;;
2698;SDS011;1359;51.798;12.174;2023-02-28T14:38:24;11.90;;;6.87;;
2698;SDS011;1359;51.798;12.174;2023-02-28T14:40:51;7.00;;;6.40;;
2698;SDS011;1359;51.798;12.174;2023-02-28T14:43:22;7.50;;;6.23;;
2698;SDS011;1359;51.798;12.174;2023-02-28T14:45:58;10.00;;;7.30;;
2698;SDS011;1359;51.798;12.174;2023-02-28T14:48:24;13.53;;;9.03;;
2698;SDS011;1359;51.798;12.174;2023-02-28T14:50:57;6.63;;;5.90;;
2698;SDS011;1359;51.798;12.174;2023-02-28T14:53:23;9.73;;;6.27;;
2698;SDS011;1359;51.798;12.174;2023-02-28T14:55:49;9.23;;;7.17;;
2698;SDS011;1359;51.798;12.174;2023-02-28T14:58:31;13.40;;;8.27;;
2698;SDS011;1359;51.798;12.174;2023-02-28T15:01:00;13.30;;;8.47;;
2698;SDS011;1359;51.798;12.174;2023-02-28T15:05:55;10.87;;;6.47;;
2698;SDS011;1359;51.798;12.174;2023-02-28T15:08:21;7.60;;;6.60;;
2698;SDS011;1359;51.798;12.174;2023-02-28T15:10:53;9.47;;;6.80;;
2698;SDS011;1359;51.798;12.174;2023-02-28T15:13:20;9.67;;;7.17;;
2698;SDS011;1359;51.798;12.174;2023-02-28T15:15:53;12.20;;;7.10;;
2698;SDS011;1359;51.798;12.174;2023-02-28T15:18:22;7.90;;;6.87;;
2698;SDS011;1359;51.798;12.174;2023-02-28T15:20:49;7.40;;;6.27;;
2698;SDS011;1359;51.798;12.174;2023-02-28T15:23:15;11.93;;;7.47;;
2698;SDS011;1359;51.798;12.174;2023-02-28T15:25:41;7.43;;;6.17;;
2698;SDS011;1359;51.798;12.174;2023-02-28T15:28:09;15.33;;;7.93;;
2698;SDS011;1359;51.798;12.174;2023-02-28T15:30:35;22.07;;;12.70;;
2698;SDS011;1359;51.798;12.174;2023-02-28T15:33:06;11.67;;;8.63;;
2698;SDS011;1359;51.798;12.174;2023-02-28T15:35:34;8.80;;;7.90;;
2698;SDS011;1359;51.798;12.174;2023-02-28T15:38:42;8.43;;;6.43;;
2698;SDS011;1359;51.798;12.174;2023-02-28T15:40:50;14.53;;;9.70;;
2698;SDS011;1359;51.798;12.174;2023-02-28T15:43:23;9.90;;;6.10;;
2698;SDS011;1359;51.798;12.174;2023-02-28T15:45:52;10.03;;;6.80;;
2698;SDS011;1359;51.798;12.174;2023-02-28T15:48:21;6.57;;;5.70;;
2698;SDS011;1359;51.798;12.174;2023-02-28T15:50:49;14.83;;;9.43;;
2698;SDS011;1359;51.798;12.174;2023-02-28T15:53:23;12.27;;;8.33;;
2698;SDS011;1359;51.798;12.174;2023-02-28T15:55:53;8.60;;;6.03;;
2698;SDS011;1359;51.798;12.174;2023-02-28T15:58:19;10.07;;;7.00;;
2698;SDS011;1359;51.798;12.174;2023-02-28T16:00:59;11.63;;;8.10;;
2698;SDS011;1359;51.798;12.174;2023-02-28T16:03:25;13.37;;;8.20;;
2698;SDS011;1359;51.798;12.174;2023-02-28T16:08:35;11.90;;;8.73;;
2698;SDS011;1359;51.798;12.174;2023-02-28T16:11:00;10.87;;;7.30;;
2698;SDS011;1359;51.798;12.174;2023-02-28T16:13:26;10.70;;;8.37;;
2698;SDS011;1359;51.798;12.174;2023-02-28T16:15:51;11.57;;;8.90;;
2698;SDS011;1359;51.798;12.174;2023-02-28T16:18:16;19.73;;;9.40;;
2698;SDS011;1359;51.798;12.174;2023-02-28T16:20:42;10.50;;;7.47;;
2698;SDS011;1359;51.798;12.174;2023-02-28T16:23:09;12.27;;;7.50;;
2698;SDS011;1359;51.798;12.174;2023-02-28T16:25:35;11.30;;;8.20;;
2698;SDS011;1359;51.798;12.174;2023-02-28T16:28:01;15.47;;;8.70;;
2698;SDS011;1359;51.798;12.174;2023-02-28T16:30:27;13.60;;;8.30;;
2698;SDS011;1359;51.798;12.174;2023-02-28T16:32:54;8.93;;;7.40;;
2698;SDS011;1359;51.798;12.174;2023-02-28T16:35:20;8.93;;;7.83;;
2698;SDS011;1359;51.798;12.174;2023-02-28T16:37:45;10.20;;;7.17;;
2698;SDS011;1359;51.798;12.174;2023-02-28T16:40:18;10.30;;;7.73;;
2698;SDS011;1359;51.798;12.174;2023-02-28T16:42:45;9.10;;;7.20;;
2698;SDS011;1359;51.798;12.174;2023-02-28T16:45:32;9.13;;;6.67;;
2698;SDS011;1359;51.798;12.174;2023-02-28T16:47:56;8.73;;;7.30;;
2698;SDS011;1359;51.798;12.174;2023-02-28T16:50:26;7.60;;;6.57;;
2698;SDS011;1359;51.798;12.174;2023-02-28T16:52:52;11.13;;;7.10;;
2698;SDS011;1359;51.798;12.174;2023-02-28T16:55:17;8.33;;;6.97;;